Time;durP1;ratioP1;P1;durP2;ratioP2;P2;SDS_P1;SDS_P2;PMS_P1;PMS_P2;Temp;Humidity;BMP_temperature;BMP_pressure;BME280_temperature;BME280_humidity;BME280_pressure;Samples;Min_cycle;Max_cycle;Signal;HPM_P1;HPM_P2
2023/04/18 00:01:37;;;;;;;;;;;;;;;11.87;100.00;98479.69;4473939;32;19984;-68
2023/04/18 00:04:05;;;;;;;;;;;;;;;11.88;100.00;98470.81;4473628;32;19996;-68
2023/04/18 00:06:34;;;;;;;;;;;;;;;11.81;100.00;98482.88;4473683;32;19976;-68
2023/04/18 00:09:02;;;;;;;;;;;;;;;11.80;100.00;98481.25;4473808;32;20027;-68
2023/04/18 00:11:30;;;;;;;;;;;;;;;11.75;100.00;98473.00;4474001;32;20555;-68
2023/04/18 00:13:58;;;;;;;;;;;;;;;11.75;100.00;98481.72;4473530;32;19983;-68
2023/04/18 00:16:26;;;;;;;;;;;;;;;11.70;100.00;98476.91;4473479;32;20348;-68
2023/04/18 00:18:54;;;;;;;;;;;;;;;11.70;100.00;98476.06;4473649;32;20039;-68
2023/04/18 00:21:21;;;;;;;;;;;;;;;11.72;100.00;98476.78;4473627;32;20043;-68
2023/04/18 00:23:48;;;;;;;;;;;;;;;11.66;100.00;98477.37;4473773;32;19968;-68
2023/04/18 00:26:16;;;;;;;;;;;;;;;11.65;100.00;98478.34;4473701;32;20031;-68
2023/04/18 00:28:44;;;;;;;;;;;;;;;11.61;100.00;98482.22;4473480;32;19980;-68
2023/04/18 00:31:11;;;;;;;;;;;;;;;11.58;100.00;98485.97;4472070;32;19976;-68
2023/04/18 00:33:39;;;;;;;;;;;;;;;11.59;100.00;98482.38;4470579;32;20048;-68
2023/04/18 00:36:07;;;;;;;;;;;;;;;11.66;100.00;98482.63;4470748;32;19988;-68
2023/04/18 00:38:34;;;;;;;;;;;;;;;11.64;100.00;98487.19;4470567;32;19976;-68
2023/04/18 00:41:02;;;;;;;;;;;;;;;11.58;100.00;98482.53;4470589;32;19976;-68
2023/04/18 00:43:29;;;;;;;;;;;;;;;11.60;100.00;98480.59;4470369;32;20058;-68
2023/04/18 00:46:00;;;;;;;;;;;;;;;11.57;100.00;98486.13;4470384;32;20417;-68
2023/04/18 00:48:28;;;;;;;;;;;;;;;11.54;100.00;98482.84;4470834;32;20326;-68
2023/04/18 00:50:55;;;;;;;;;;;;;;;11.56;100.00;98480.06;4469343;32;20007;-68
2023/04/18 00:53:22;;;;;;;;;;;;;;;11.58;100.00;98488.59;4470452;32;20333;-68
2023/04/18 00:55:50;;;;;;;;;;;;;;;11.65;100.00;98486.22;4470326;32;20048;-68
2023/04/18 00:58:17;;;;;;;;;;;;;;;11.66;100.00;98487.88;4470599;32;20031;-68
2023/04/18 01:00:45;;;;;;;;;;;;;;;11.64;100.00;98493.28;4470363;32;20059;-68
2023/04/18 01:03:13;;;;;;;;;;;;;;;11.68;100.00;98489.34;4470273;32;20000;-68
2023/04/18 01:05:40;;;;;;;;;;;;;;;11.66;100.00;98487.88;4470296;32;19980;-68
2023/04/18 01:08:08;;;;;;;;;;;;;;;11.64;100.00;98487.19;4470293;32;20000;-68
2023/04/18 01:10:36;;;;;;;;;;;;;;;11.62;100.00;98489.12;4470429;32;20494;-68
2023/04/18 01:13:17;;;;;;;;;;;;;;;11.65;100.00;98488.84;4470245;32;19972;-68
2023/04/18 01:15:46;;;;;;;;;;;;;;;11.64;100.00;98493.28;4470431;32;20000;-68
2023/04/18 01:18:16;;;;;;;;;;;;;;;11.64;100.00;98481.94;4470128;32;19977;-68
2023/04/18 01:20:49;;;;;;;;;;;;;;;11.67;100.00;98492.13;4469212;32;19997;-68
2023/04/18 01:23:19;;;;;;;;;;;;;;;11.79;100.00;98488.28;4470394;32;19988;-68
2023/04/18 01:25:48;;;;;;;;;;;;;;;11.76;100.00;98485.97;4470092;32;20369;-68
2023/04/18 01:28:17;;;;;;;;;;;;;;;11.66;100.00;98490.50;4470395;32;20500;-68
2023/04/18 01:30:44;;;;;;;;;;;;;;;11.63;100.00;98488.19;4470011;32;19998;-68
2023/04/18 01:33:12;;;;;;;;;;;;;;;11.68;100.00;98491.16;4470187;32;20351;-68
2023/04/18 01:35:39;;;;;;;;;;;;;;;11.59;100.00;98484.19;4470135;32;20244;-68
2023/04/18 01:38:06;;;;;;;;;;;;;;;11.65;100.00;98488.84;4470124;32;20385;-68
2023/04/18 01:40:34;;;;;;;;;;;;;;;11.66;100.00;98491.31;4470091;32;19983;-68
2023/04/18 01:43:01;;;;;;;;;;;;;;;11.69;100.00;98495.44;4470031;32;19973;-68
2023/04/18 01:45:29;;;;;;;;;;;;;;;11.69;100.00;98496.25;4469771;32;20080;-68
2023/04/18 01:47:56;;;;;;;;;;;;;;;11.68;100.00;98489.34;4470210;32;20298;-68
2023/04/18 01:50:24;;;;;;;;;;;;;;;11.67;100.00;98492.97;4470075;32;20390;-68
2023/04/18 01:52:51;;;;;;;;;;;;;;;11.62;100.00;98494.38;4470252;32;20397;-68
2023/04/18 01:55:18;;;;;;;;;;;;;;;11.63;100.00;98494.25;4470149;32;19999;-68
2023/04/18 01:57:46;;;;;;;;;;;;;;;11.63;100.00;98496.03;4470410;32;20003;-68
2023/04/18 02:00:13;;;;;;;;;;;;;;;11.57;100.00;98496.62;4470252;32;19983;-68
2023/04/18 02:02:40;;;;;;;;;;;;;;;11.57;100.00;98501.88;4469846;32;19976;-68
2023/04/18 02:05:08;;;;;;;;;;;;;;;11.57;100.00;98496.62;4470223;32;19995;-68
2023/04/18 02:07:37;;;;;;;;;;;;;;;11.43;100.00;98498.81;4469918;32;20015;-68
2023/04/18 02:10:05;;;;;;;;;;;;;;;11.38;100.00;98484.50;4469878;32;20613;-68
2023/04/18 02:12:33;;;;;;;;;;;;;;;11.41;100.00;98497.31;4470065;32;20269;-68
2023/04/18 02:15:00;;;;;;;;;;;;;;;11.30;100.00;98501.78;4469721;32;20003;-68
2023/04/18 02:17:28;;;;;;;;;;;;;;;11.29;100.00;98496.69;4470092;32;20010;-68
2023/04/18 02:19:55;;;;;;;;;;;;;;;11.23;100.00;98505.16;4469941;32;19979;-68
2023/04/18 02:22:22;;;;;;;;;;;;;;;11.24;100.00;98494.50;4469955;32;20022;-68
2023/04/18 02:24:50;;;;;;;;;;;;;;;11.12;100.00;98501.75;4469968;32;20367;-68
2023/04/18 02:27:17;;;;;;;;;;;;;;;11.11;100.00;98500.13;4469680;32;20025;-68
2023/04/18 02:29:45;;;;;;;;;;;;;;;11.16;100.00;98505.75;4469814;32;19994;-68
2023/04/18 02:32:12;;;;;;;;;;;;;;;11.25;100.00;98497.94;4469649;32;19988;-68
2023/04/18 02:34:42;;;;;;;;;;;;;;;11.33;100.00;98491.00;4469695;32;20030;-68
2023/04/18 02:37:10;;;;;;;;;;;;;;;11.23;100.00;98500.72;4469661;32;20011;-68
2023/04/18 02:39:39;;;;;;;;;;;;;;;11.24;100.00;98496.31;4470050;32;20082;-68
2023/04/18 02:42:06;;;;;;;;;;;;;;;11.28;100.00;98497.66;4468455;32;19988;-68
2023/04/18 02:44:33;;;;;;;;;;;;;;;11.30;100.00;98509.66;4469632;32;20035;-68
2023/04/18 02:47:01;;;;;;;;;;;;;;;11.43;100.00;98506.69;4469367;32;20008;-68
2023/04/18 02:49:29;;;;;;;;;;;;;;;11.48;100.00;98506.22;4470013;32;19980;-68
2023/04/18 02:51:56;;;;;;;;;;;;;;;11.45;100.00;98504.72;4469590;32;20009;-68
2023/04/18 02:54:24;;;;;;;;;;;;;;;11.41;100.00;98503.38;4468875;32;20035;-68
2023/04/18 02:56:52;;;;;;;;;;;;;;;11.43;100.00;98504.06;4468382;32;20035;-68
2023/04/18 02:59:20;;;;;;;;;;;;;;;11.36;100.00;98503.81;4469780;32;20003;-68
2023/04/18 03:01:50;;;;;;;;;;;;;;;11.40;100.00;98506.13;4469797;32;19980;-68
2023/04/18 03:04:17;;;;;;;;;;;;;;;11.39;100.00;98515.81;4469657;32;20047;-68
2023/04/18 03:06:46;;;;;;;;;;;;;;;11.41;100.00;98511.22;4469353;32;19983;-68
2023/04/18 03:09:15;;;;;;;;;;;;;;;11.38;100.00;98519.41;4469763;32;19998;-68
2023/04/18 03:11:43;;;;;;;;;;;;;;;11.38;100.00;98524.66;4469635;32;20044;-68
2023/04/18 03:14:10;;;;;;;;;;;;;;;11.41;100.00;98526.97;4469688;32;19985;-68
2023/04/18 03:16:39;;;;;;;;;;;;;;;11.45;100.00;98525.72;4469187;32;19994;-68
2023/04/18 03:19:07;;;;;;;;;;;;;;;11.44;100.00;98529.28;4468488;32;19971;-68
2023/04/18 03:21:35;;;;;;;;;;;;;;;11.44;100.00;98529.28;4469519;32;19980;-68
2023/04/18 03:24:05;;;;;;;;;;;;;;;11.46;100.00;98530.00;4469159;32;20401;-68
2023/04/18 03:26:33;;;;;;;;;;;;;;;11.39;100.00;98525.50;4469469;32;19991;-68
2023/04/18 03:29:01;;;;;;;;;;;;;;;11.35;100.00;98524.94;4469420;32;20409;-68
2023/04/18 03:31:29;;;;;;;;;;;;;;;11.30;100.00;98527.19;4469157;32;20017;-68
2023/04/18 03:33:57;;;;;;;;;;;;;;;11.28;100.00;98527.34;4469187;32;20007;-68
2023/04/18 03:36:24;;;;;;;;;;;;;;;11.24;100.00;98527.78;4469010;32;19985;-68
2023/04/18 03:38:52;;;;;;;;;;;;;;;11.18;100.00;98534.44;4469332;32;19992;-68
2023/04/18 03:41:19;;;;;;;;;;;;;;;11.18;100.00;98530.00;4468828;32;19972;-68
2023/04/18 03:43:47;;;;;;;;;;;;;;;11.10;100.00;98540.41;4469074;32;20031;-68
2023/04/18 03:46:14;;;;;;;;;;;;;;;11.09;100.00;98535.31;4468816;32;20346;-68
2023/04/18 03:48:42;;;;;;;;;;;;;;;11.01;100.00;98538.69;4468987;32;20021;-68
2023/04/18 03:51:10;;;;;;;;;;;;;;;10.93;100.00;98539.41;4467876;32;20035;-68
2023/04/18 03:53:38;;;;;;;;;;;;;;;10.91;100.00;98537.87;4468925;32;19980;-68
2023/04/18 03:56:05;;;;;;;;;;;;;;;10.88;100.00;98539.00;4469015;32;19980;-68
2023/04/18 03:58:35;;;;;;;;;;;;;;;10.79;100.00;98530.19;4467776;32;19980;-68
2023/04/18 04:01:02;;;;;;;;;;;;;;;10.80;100.00;98536.28;4468817;32;20050;-68
2023/04/18 04:03:30;;;;;;;;;;;;;;;10.84;100.00;98529.78;4468815;32;19980;-68
2023/04/18 04:05:57;;;;;;;;;;;;;;;10.82;100.00;98534.34;4468978;32;19998;-68
2023/04/18 04:08:25;;;;;;;;;;;;;;;10.82;100.00;98540.41;4469000;32;20044;-68
2023/04/18 04:10:55;;;;;;;;;;;;;;;10.76;100.00;98534.91;4469446;32;19987;-68
2023/04/18 04:13:23;;;;;;;;;;;;;;;10.78;100.00;98538.19;4470443;32;20341;-68
2023/04/18 04:15:50;;;;;;;;;;;;;;;10.88;100.00;98535.56;4470611;32;20008;-68
2023/04/18 04:18:18;;;;;;;;;;;;;;;10.90;100.00;98541.47;4470705;32;20058;-68
2023/04/18 04:20:45;;;;;;;;;;;;;;;10.83;100.00;98547.28;4470849;32;19995;-68
2023/04/18 04:23:13;;;;;;;;;;;;;;;10.82;100.00;98544.81;4470652;32;20038;-68
2023/04/18 04:25:41;;;;;;;;;;;;;;;10.81;100.00;98544.00;4471033;32;20007;-68
2023/04/18 04:28:09;;;;;;;;;;;;;;;10.82;100.00;98540.41;4467505;32;20003;-68
2023/04/18 04:30:40;;;;;;;;;;;;;;;10.92;100.00;98548.22;4463880;32;20054;-68
2023/04/18 04:33:08;;;;;;;;;;;;;;;10.87;100.00;98549.62;4469268;32;20022;-68
2023/04/18 04:35:36;;;;;;;;;;;;;;;10.82;100.00;98545.66;4470451;32;20330;-68
2023/04/18 04:38:03;;;;;;;;;;;;;;;10.90;100.00;98546.72;4465623;32;20002;-69
2023/04/18 04:40:31;;;;;;;;;;;;;;;10.93;100.00;98551.66;4467700;32;19983;-69
2023/04/18 04:42:59;;;;;;;;;;;;;;;10.94;100.00;98558.56;4465512;32;19984;-69
2023/04/18 04:45:26;;;;;;;;;;;;;;;10.98;100.00;98565.19;4468659;32;19976;-69
2023/04/18 04:47:54;;;;;;;;;;;;;;;11.03;100.00;98559.50;4471848;32;20362;-68
2023/04/18 04:50:21;;;;;;;;;;;;;;;10.97;100.00;98564.34;4469829;31;19994;-68
2023/04/18 04:52:49;;;;;;;;;;;;;;;10.92;100.00;98565.75;4468291;32;20028;-69
2023/04/18 04:55:17;;;;;;;;;;;;;;;10.96;100.00;98569.72;4467060;32;20001;-68
2023/04/18 04:57:46;;;;;;;;;;;;;;;10.96;100.00;98567.09;4470064;32;19992;-69
2023/04/18 05:00:19;;;;;;;;;;;;;;;10.96;100.00;98567.94;4466276;32;20010;-69
2023/04/18 05:02:47;;;;;;;;;;;;;;;10.87;100.00;98566.19;4466059;32;19985;-69
2023/04/18 05:05:15;;;;;;;;;;;;;;;10.90;100.00;98572.91;4462880;32;19991;-68
2023/04/18 05:07:42;;;;;;;;;;;;;;;10.99;100.00;98572.91;4463088;32;19988;-68
2023/04/18 05:10:10;;;;;;;;;;;;;;;11.03;100.00;98572.59;4464350;32;20090;-68
2023/04/18 05:12:37;;;;;;;;;;;;;;;11.02;100.00;98574.38;4463950;32;20403;-69
2023/04/18 05:15:05;;;;;;;;;;;;;;;11.09;100.00;98575.47;4459442;32;169609;-69
2023/04/18 05:17:33;;;;;;;;;;;;;;;11.07;100.00;98579.22;4460399;32;20247;-68
2023/04/18 05:20:00;;;;;;;;;;;;;;;11.09;100.00;98578.06;4470152;32;20027;-68
2023/04/18 05:22:27;;;;;;;;;;;;;;;11.09;100.00;98577.25;4467668;31;20011;-68
2023/04/18 05:24:55;;;;;;;;;;;;;;;11.07;100.00;98584.47;4467053;32;19992;-68
2023/04/18 05:27:22;;;;;;;;;;;;;;;11.15;100.00;98587.16;4464186;32;19968;-68
2023/04/18 05:29:51;;;;;;;;;;;;;;;11.18;100.00;98589.50;4468227;32;20059;-69
2023/04/18 05:32:20;;;;;;;;;;;;;;;11.21;100.00;98591.00;4467597;32;19996;-68
2023/04/18 05:34:47;;;;;;;;;;;;;;;11.15;100.00;98590.59;4468177;32;19989;-68
2023/04/18 05:37:14;;;;;;;;;;;;;;;11.09;100.00;98593.81;4468829;32;19993;-66
2023/04/18 05:39:43;;;;;;;;;;;;;;;11.09;100.00;98582.50;4468874;32;20029;-68
2023/04/18 05:42:10;;;;;;;;;;;;;;;11.10;100.00;98592.03;4468026;32;20333;-67
2023/04/18 05:44:38;;;;;;;;;;;;;;;11.04;100.00;98593.44;4473977;32;19998;-68
2023/04/18 05:47:05;;;;;;;;;;;;;;;10.99;100.00;98591.25;4468942;31;20378;-67
2023/04/18 05:49:33;;;;;;;;;;;;;;;11.01;100.00;98596.34;4467084;32;20047;-68
2023/04/18 05:52:01;;;;;;;;;;;;;;;11.00;100.00;98594.69;4471726;32;20322;-66
2023/04/18 05:54:29;;;;;;;;;;;;;;;10.82;100.00;98595.44;4466946;32;20023;-68
2023/04/18 05:56:57;;;;;;;;;;;;;;;10.93;100.00;98601.47;4463442;32;19988;-67
2023/04/18 05:59:26;;;;;;;;;;;;;;;11.00;100.00;98597.31;4467077;32;19980;-67
2023/04/18 06:01:53;;;;;;;;;;;;;;;10.95;100.00;98594.28;4462610;32;20071;-68
2023/04/18 06:04:24;;;;;;;;;;;;;;;11.07;100.00;98606.25;4463927;32;20582;-68
2023/04/18 06:06:51;;;;;;;;;;;;;;;11.09;100.00;98612.16;4467218;32;19975;-68
2023/04/18 06:09:19;;;;;;;;;;;;;;;11.12;100.00;98611.88;4466217;32;20054;-66
2023/04/18 06:11:46;;;;;;;;;;;;;;;11.09;100.00;98606.91;4466279;32;20025;-67
2023/04/18 06:14:13;;;;;;;;;;;;;;;11.13;100.00;98605.66;4464448;32;20586;-67
2023/04/18 06:16:41;;;;;;;;;;;;;;;11.17;100.00;98622.78;4462872;32;19983;-68
2023/04/18 06:19:09;;;;;;;;;;;;;;;11.24;100.00;98620.38;4462115;32;20021;-68
2023/04/18 06:21:36;;;;;;;;;;;;;;;11.37;100.00;98622.69;4463596;32;20006;-66
2023/04/18 06:24:04;;;;;;;;;;;;;;;11.51;100.00;98624.81;4465924;32;20000;-68
2023/04/18 06:26:32;;;;;;;;;;;;;;;11.63;100.00;98622.00;4465692;31;20007;-67
2023/04/18 06:29:00;;;;;;;;;;;;;;;11.70;100.00;98620.41;4455873;32;19988;-68
2023/04/18 06:31:27;;;;;;;;;;;;;;;11.81;100.00;98622.00;4464111;32;20052;-66
2023/04/18 06:33:55;;;;;;;;;;;;;;;12.11;100.00;98620.81;4461310;32;19992;-65
2023/04/18 06:36:22;;;;;;;;;;;;;;;12.38;100.00;98616.47;4464982;32;19995;-66
2023/04/18 06:38:50;;;;;;;;;;;;;;;12.68;100.00;98627.53;4462275;32;19982;-67
2023/04/18 06:41:17;;;;;;;;;;;;;;;12.73;100.00;98626.09;4462448;32;19984;-67
2023/04/18 06:43:45;;;;;;;;;;;;;;;12.88;100.00;98628.94;4464478;32;20049;-66
2023/04/18 06:46:29;;;;;;;;;;;;;;;13.10;100.00;98634.69;4464755;32;20044;-67
2023/04/18 06:48:56;;;;;;;;;;;;;;;13.26;100.00;98632.13;4466679;32;20003;-66
2023/04/18 06:51:23;;;;;;;;;;;;;;;13.13;100.00;98637.81;4463710;32;19988;-66
2023/04/18 06:53:54;;;;;;;;;;;;;;;13.08;100.00;98639.25;4465555;32;19991;-66
2023/04/18 06:56:21;;;;;;;;;;;;;;;13.04;100.00;98632.69;4466591;32;19971;-68
2023/04/18 06:58:49;;;;;;;;;;;;;;;13.45;100.00;98638.16;4466007;32;19987;-69
2023/04/18 07:01:16;;;;;;;;;;;;;;;13.62;100.00;98641.66;4463864;32;20003;-69
2023/04/18 07:03:44;;;;;;;;;;;;;;;13.61;100.00;98651.37;4463432;32;20000;-68
2023/04/18 07:06:11;;;;;;;;;;;;;;;13.69;100.00;98649.72;4465529;32;20024;-70
2023/04/18 07:08:39;;;;;;;;;;;;;;;13.84;100.00;98646.34;4463842;32;19979;-70
2023/04/18 07:11:06;;;;;;;;;;;;;;;14.09;100.00;98648.19;4465133;32;20034;-70
2023/04/18 07:13:34;;;;;;;;;;;;;;;14.16;100.00;98651.81;4465734;32;20033;-68
2023/04/18 07:16:02;;;;;;;;;;;;;;;14.16;96.25;98654.47;4464784;32;20032;-68
2023/04/18 07:18:29;;;;;;;;;;;;;;;14.20;96.83;98647.84;4465497;32;20374;-68
2023/04/18 07:21:08;;;;;;;;;;;;;;;14.40;97.22;98644.91;4465515;32;19992;-69
2023/04/18 07:23:35;;;;;;;;;;;;;;;14.68;97.04;98640.97;4462002;32;20036;-68
2023/04/18 07:26:04;;;;;;;;;;;;;;;15.02;94.08;98645.22;4462908;32;20003;-67
2023/04/18 07:28:32;;;;;;;;;;;;;;;15.11;90.58;98653.09;4466146;32;20037;-67
2023/04/18 07:31:00;;;;;;;;;;;;;;;15.01;91.69;98655.94;4464580;32;20114;-68
2023/04/18 07:33:30;;;;;;;;;;;;;;;14.83;87.94;98653.50;4463624;32;20042;-69
2023/04/18 07:35:59;;;;;;;;;;;;;;;14.89;91.22;98653.63;4466367;32;19975;-69
2023/04/18 07:38:27;;;;;;;;;;;;;;;14.80;88.67;98659.09;4464967;32;20706;-69
2023/04/18 07:40:57;;;;;;;;;;;;;;;14.61;93.19;98652.34;4465912;32;20310;-69
2023/04/18 07:43:25;;;;;;;;;;;;;;;14.82;91.49;98665.88;4466160;32;20668;-67
2023/04/18 07:45:52;;;;;;;;;;;;;;;14.73;89.79;98662.41;4466412;32;19993;-68
2023/04/18 07:48:21;;;;;;;;;;;;;;;14.63;91.36;98660.94;4467682;32;19979;-68
2023/04/18 07:50:48;;;;;;;;;;;;;;;14.65;91.74;98670.31;4469336;32;19991;-68
2023/04/18 07:53:16;;;;;;;;;;;;;;;14.98;90.05;98670.28;4466350;32;20007;-67
2023/04/18 07:55:43;;;;;;;;;;;;;;;14.99;89.84;98664.00;4467022;32;20052;-67
2023/04/18 07:58:11;;;;;;;;;;;;;;;15.26;87.69;98678.62;4468423;32;19980;-67
2023/04/18 08:00:41;;;;;;;;;;;;;;;15.13;86.85;98680.16;4467733;32;19984;-67
2023/04/18 08:03:10;;;;;;;;;;;;;;;15.04;87.36;98669.59;4466166;32;19990;-67
2023/04/18 08:05:39;;;;;;;;;;;;;;;14.95;86.32;98675.06;4465787;32;20014;-67
2023/04/18 08:08:07;;;;;;;;;;;;;;;15.11;89.26;98679.47;4469410;32;19976;-67
2023/04/18 08:10:35;;;;;;;;;;;;;;;15.02;86.66;98668.97;4461705;32;20003;-66
2023/04/18 08:13:02;;;;;;;;;;;;;;;15.23;91.41;98680.75;4464594;32;20037;-67
2023/04/18 08:15:31;;;;;;;;;;;;;;;14.89;84.81;98676.56;4465780;32;19976;-66
2023/04/18 08:17:59;;;;;;;;;;;;;;;14.96;91.33;98676.69;4470519;32;19989;-66
2023/04/18 08:20:27;;;;;;;;;;;;;;;14.78;89.67;98685.62;4468386;31;20003;-67
2023/04/18 08:22:54;;;;;;;;;;;;;;;14.86;89.44;98679.53;4465373;32;19988;-66
2023/04/18 08:25:25;;;;;;;;;;;;;;;14.68;88.77;98691.06;4467457;32;20054;-68
2023/04/18 08:27:52;;;;;;;;;;;;;;;14.88;87.88;98685.44;4467806;32;19989;-66
2023/04/18 08:30:19;;;;;;;;;;;;;;;14.85;86.48;98696.34;4469566;31;19979;-66
2023/04/18 08:32:48;;;;;;;;;;;;;;;14.75;88.24;98687.75;4467699;32;19988;-67
2023/04/18 08:35:15;;;;;;;;;;;;;;;15.28;91.49;98694.28;4470071;31;19980;-66
2023/04/18 08:37:43;;;;;;;;;;;;;;;15.30;86.26;98697.56;4469014;32;20021;-66
2023/04/18 08:40:10;;;;;;;;;;;;;;;15.39;85.68;98695.75;4463042;32;19983;-66
2023/04/18 08:42:37;;;;;;;;;;;;;;;15.34;84.54;98701.53;4469648;32;20353;-67
2023/04/18 08:45:05;;;;;;;;;;;;;;;15.62;84.13;98701.09;4467395;32;19992;-68
2023/04/18 08:47:34;;;;;;;;;;;;;;;15.79;82.23;98696.59;4466226;32;19984;-67
2023/04/18 08:50:01;;;;;;;;;;;;;;;16.26;80.77;98705.41;4464450;31;19984;-67
2023/04/18 08:52:29;;;;;;;;;;;;;;;16.34;77.78;98702.72;4463072;32;20009;-67
2023/04/18 08:54:57;;;;;;;;;;;;;;;16.32;77.84;98702.06;4459659;32;19983;-65
2023/04/18 08:57:28;;;;;;;;;;;;;;;16.62;76.68;98707.47;4463306;32;20064;-65
2023/04/18 08:59:56;;;;;;;;;;;;;;;16.29;78.20;98705.91;4465460;32;19988;-65
2023/04/18 09:02:33;;;;;;;;;;;;;;;16.52;79.02;98701.59;4464362;32;19976;-66
2023/04/18 09:05:03;;;;;;;;;;;;;;;16.38;77.33;98701.41;4463259;32;20040;-66
2023/04/18 09:07:31;;;;;;;;;;;;;;;16.30;76.92;98704.06;4461410;32;20401;-65
2023/04/18 09:09:58;;;;;;;;;;;;;;;16.70;76.13;98696.84;4467314;32;20375;-66
2023/04/18 09:12:26;;;;;;;;;;;;;;;17.12;73.38;98705.25;4464538;32;19996;-66
2023/04/18 09:14:57;;;;;;;;;;;;;;;17.66;76.04;98704.16;4468035;32;20046;-66
2023/04/18 09:17:34;;;;;;;;;;;;;;;18.17;72.54;98703.34;4464072;32;19995;-66
2023/04/18 09:20:08;;;;;;;;;;;;;;;17.66;68.85;98701.53;4466880;32;19984;-66
2023/04/18 09:23:02;;;;;;;;;;;;;;;18.29;66.93;98703.69;4464140;32;19989;-65
2023/04/18 09:25:34;;;;;;;;;;;;;;;17.99;65.64;98698.50;4464466;32;20002;-65
2023/04/18 09:28:03;;;;;;;;;;;;;;;18.24;67.68;98702.44;4466299;32;20004;-65
2023/04/18 09:30:38;;;;;;;;;;;;;;;18.49;63.64;98704.72;4466201;32;20043;-65
2023/04/18 09:33:08;;;;;;;;;;;;;;;19.02;70.06;98700.91;4465731;32;19988;-66
2023/04/18 09:35:36;;;;;;;;;;;;;;;19.54;63.79;98698.75;4465369;32;19972;-66
2023/04/18 09:38:06;;;;;;;;;;;;;;;19.72;68.01;98701.69;4467201;32;20014;-66
2023/04/18 09:40:34;;;;;;;;;;;;;;;19.33;58.38;98703.97;4466408;32;20041;-65
2023/04/18 09:43:14;;;;;;;;;;;;;;;18.63;60.37;98701.16;4465680;32;20501;-67
2023/04/18 09:45:41;;;;;;;;;;;;;;;17.95;62.51;98702.50;4463715;32;20087;-66
2023/04/18 09:48:09;;;;;;;;;;;;;;;17.48;64.39;98704.53;4463261;31;19984;-66
2023/04/18 09:50:38;;;;;;;;;;;;;;;17.26;68.56;98700.97;4461068;32;20360;-66
2023/04/18 09:53:06;;;;;;;;;;;;;;;17.29;69.91;98697.94;4464233;32;20051;-65
2023/04/18 09:55:34;;;;;;;;;;;;;;;17.62;70.00;98695.75;4469178;32;20028;-65
2023/04/18 09:58:02;;;;;;;;;;;;;;;17.17;67.57;98701.06;4464465;32;19998;-66
2023/04/18 10:00:29;;;;;;;;;;;;;;;17.31;68.70;98699.44;4465117;32;19999;-67
2023/04/18 10:02:57;;;;;;;;;;;;;;;16.87;68.17;98702.84;4463856;32;20015;-66
2023/04/18 10:05:36;;;;;;;;;;;;;;;16.97;67.74;98697.28;4462848;32;19992;-66
2023/04/18 10:08:03;;;;;;;;;;;;;;;17.00;68.57;98696.94;4469882;32;20014;-67
2023/04/18 10:10:31;;;;;;;;;;;;;;;16.68;68.44;98698.84;4471069;32;19993;-67
2023/04/18 10:12:59;;;;;;;;;;;;;;;16.84;68.14;98708.47;4468156;32;19991;-68
2023/04/18 10:15:27;;;;;;;;;;;;;;;16.99;67.08;98696.13;4466541;32;20731;-68
2023/04/18 10:17:55;;;;;;;;;;;;;;;17.38;64.31;98696.84;4478021;32;19984;-67
2023/04/18 10:20:33;;;;;;;;;;;;;;;17.55;65.37;98698.31;4464152;32;19980;-67
2023/04/18 10:23:20;;;;;;;;;;;;;;;17.90;60.44;98698.56;4477365;32;19988;-66
2023/04/18 10:25:48;;;;;;;;;;;;;;;17.80;60.74;98699.84;4477134;32;20039;-67
2023/04/18 10:28:16;;;;;;;;;;;;;;;18.20;62.09;98709.12;4475767;32;19984;-68
2023/04/18 10:30:44;;;;;;;;;;;;;;;18.15;58.30;98700.88;4474080;31;20372;-66
2023/04/18 10:33:21;;;;;;;;;;;;;;;18.08;59.37;98694.72;4468279;32;21155;-66
2023/04/18 10:35:58;;;;;;;;;;;;;;;18.15;61.16;98700.06;4470804;32;20028;-65
2023/04/18 10:38:27;;;;;;;;;;;;;;;17.95;58.46;98699.84;4467215;32;19982;-66
2023/04/18 10:41:13;;;;;;;;;;;;;;;17.80;60.70;98703.31;4472105;32;19979;-66
2023/04/18 10:44:00;;;;;;;;;;;;;;;18.26;59.39;98697.75;4473323;32;20360;-64
2023/04/18 10:46:27;;;;;;;;;;;;;;;18.43;56.47;98697.50;4474003;32;19980;-65
2023/04/18 10:49:11;;;;;;;;;;;;;;;18.70;56.89;98693.25;4472499;32;19991;-65
2023/04/18 10:51:39;;;;;;;;;;;;;;;18.43;58.72;98694.84;4465394;31;20041;-65
2023/04/18 10:54:08;;;;;;;;;;;;;;;18.62;56.62;98688.91;4469721;32;19988;-64
2023/04/18 10:56:38;;;;;;;;;;;;;;;18.35;56.97;98697.63;4470458;31;19983;-65
2023/04/18 10:59:05;;;;;;;;;;;;;;;18.25;57.95;98684.69;4469072;31;20039;-66
2023/04/18 11:01:35;;;;;;;;;;;;;;;17.99;57.31;98679.94;4464624;32;20330;-65
2023/04/18 11:04:03;;;;;;;;;;;;;;;18.20;58.40;98682.59;4472861;32;19994;-65
2023/04/18 11:06:31;;;;;;;;;;;;;;;18.13;58.01;98692.31;4468829;32;19972;-66
2023/04/18 11:09:12;;;;;;;;;;;;;;;17.85;55.95;98684.19;4462252;32;20039;-67
2023/04/18 11:11:40;;;;;;;;;;;;;;;17.56;58.32;98681.44;4474021;32;19976;-64
2023/04/18 11:14:07;;;;;;;;;;;;;;;17.26;62.87;98685.94;4468261;32;20014;-66
2023/04/18 11:16:35;;;;;;;;;;;;;;;17.23;66.67;98680.16;4466432;32;20398;-66
2023/04/18 11:19:22;;;;;;;;;;;;;;;17.35;67.93;98678.69;4467767;32;19991;-65
2023/04/18 11:21:50;;;;;;;;;;;;;;;17.54;66.60;98683.44;4466123;32;20366;-65
2023/04/18 11:24:23;;;;;;;;;;;;;;;17.98;65.79;98688.88;4465330;32;19984;-65
2023/04/18 11:26:54;;;;;;;;;;;;;;;17.71;63.85;98691.19;4466160;32;20033;-65
2023/04/18 11:29:22;;;;;;;;;;;;;;;17.70;63.80;98689.56;4468829;32;19988;-65
2023/04/18 11:31:50;;;;;;;;;;;;;;;17.66;64.87;98693.56;4469348;32;19984;-66
2023/04/18 11:34:18;;;;;;;;;;;;;;;17.60;64.06;98692.47;4472790;31;20369;-65
2023/04/18 11:36:50;;;;;;;;;;;;;;;17.83;64.99;98700.28;4468721;32;19994;-65
2023/04/18 11:39:17;;;;;;;;;;;;;;;17.59;65.57;98690.81;4469566;32;20053;-66
2023/04/18 11:41:49;;;;;;;;;;;;;;;17.45;64.46;98694.31;4473217;31;19998;-66
2023/04/18 11:44:17;;;;;;;;;;;;;;;17.62;65.54;98695.75;4468623;32;20023;-66
2023/04/18 11:46:46;;;;;;;;;;;;;;;17.60;63.07;98692.47;4462055;32;19994;-66
2023/04/18 11:49:23;;;;;;;;;;;;;;;17.15;64.25;98692.50;4465251;32;20045;-66
2023/04/18 11:51:52;;;;;;;;;;;;;;;16.95;65.57;98689.53;4463281;32;20689;-66
2023/04/18 11:54:37;;;;;;;;;;;;;;;17.05;65.56;98686.62;4470099;32;20000;-66
2023/04/18 11:57:05;;;;;;;;;;;;;;;16.84;65.54;98693.41;4464919;32;19980;-65
2023/04/18 11:59:32;;;;;;;;;;;;;;;16.70;65.94;98688.91;4466940;32;20003;-66
2023/04/18 12:02:03;;;;;;;;;;;;;;;16.53;65.76;98690.84;4468449;31;20036;-65
2023/04/18 12:04:50;;;;;;;;;;;;;;;16.56;67.52;98685.19;4466002;32;20005;-64
2023/04/18 12:07:31;;;;;;;;;;;;;;;16.19;67.23;98688.63;4467992;32;20050;-64
2023/04/18 12:09:59;;;;;;;;;;;;;;;16.27;67.46;98688.56;4462420;32;20348;-64
2023/04/18 12:12:27;;;;;;;;;;;;;;;16.24;68.40;98691.56;4465452;32;20356;-65
2023/04/18 12:15:01;;;;;;;;;;;;;;;16.58;67.78;98685.88;4473193;32;19996;-65
2023/04/18 12:17:29;;;;;;;;;;;;;;;16.69;63.36;98684.63;4470337;31;19990;-65
2023/04/18 12:20:00;;;;;;;;;;;;;;;17.08;62.94;98686.28;4470384;32;19995;-65
2023/04/18 12:22:50;;;;;;;;;;;;;;;17.63;62.26;98681.50;4466321;32;20358;-65
2023/04/18 12:25:21;;;;;;;;;;;;;;;18.04;62.36;98682.84;4473015;32;20049;-65
2023/04/18 12:27:57;;;;;;;;;;;;;;;18.25;58.93;98682.84;4478021;32;19979;-67
2023/04/18 12:30:28;;;;;;;;;;;;;;;18.11;56.42;98683.72;4469386;32;20429;-66
2023/04/18 12:32:56;;;;;;;;;;;;;;;17.85;57.88;98679.75;4454053;32;19980;-67
2023/04/18 12:35:24;;;;;;;;;;;;;;;17.62;58.12;98679.03;4477239;32;19998;-66
2023/04/18 12:37:52;;;;;;;;;;;;;;;17.73;59.66;98676.75;4469813;31;19984;-66
2023/04/18 12:40:20;;;;;;;;;;;;;;;17.62;59.64;98681.69;4466324;32;19998;-66
2023/04/18 12:42:49;;;;;;;;;;;;;;;17.49;60.36;98682.34;4467402;32;20033;-66
2023/04/18 12:45:17;;;;;;;;;;;;;;;17.13;60.60;98685.72;4473763;32;20484;-65
2023/04/18 12:47:46;;;;;;;;;;;;;;;17.13;62.41;98680.44;4471615;31;20079;-66
2023/04/18 12:50:23;;;;;;;;;;;;;;;17.22;61.01;98681.19;4473476;32;19983;-66